Latest Weather Observations for Blackwater Airport

IDQ60801

Issued at 3:32 pm EST Tuesday 1 September 2015 (issued every 30 minutes, with the page automatically refreshed every 10 minutes)

About weather observations | Map of weather stations | Latest weather observations for QLD | Other Formats
Station Details ID: 035134 Name: BLACKWATER AIRPORT Lat: -23.60 Lon: 148.81 Height: 192.95 m
Data from the previous 72 hours. | See also: Recent months at Blackwater Airport
Date/Time
EST
Temp
°C
App
Temp
°C
Dew
Point
Rel
Hum
%
Delta-T
°C
Wind Press
QNH
hPa
Press
MSL
hPa
Rain
since 9 am
mm
Dir
 
Spd
km/h
Gust
km/h
Spd
kts
Gust
kts
01/03:30pm 26.5 23.0 1.0 19 12.2 WNW 9 17 5 9 1014.4 1013.7 0.0
01/03:00pm 25.9 22.4 1.2 20 11.8 WSW 9 19 5 10 1014.7 1014.0 0.0
01/02:30pm 25.4 21.9 1.5 21 11.4 NE 9 19 5 10 1015.1 1014.4 0.0
01/02:00pm 26.2 22.9 2.2 21 11.7 NE 9 15 5 8 1015.7 1015.0 0.0
01/01:30pm 24.6 20.4 1.5 22 11.0 NNE 13 24 7 13 1016.3 1015.6 0.0
01/01:00pm 24.7 21.0 2.2 23 10.8 N 11 20 6 11 1016.7 1016.0 0.0
01/12:30pm 24.0 19.8 1.6 23 10.6 E 13 19 7 10 1017.3 1016.6 0.0
01/12:00pm 23.4 19.1 1.1 23 10.4 ENE 13 24 7 13 1018.0 1017.3 0.0
01/11:30am 23.0 18.3 0.8 23 10.3 NNE 15 26 8 14 1018.6 1017.9 0.0
01/11:00am 23.4 19.2 1.7 24 10.3 NE 13 24 7 13 1019.2 1018.6 0.0
01/10:30am 22.0 18.3 -0.1 23 10.0 E 9 17 5 9 1019.6 1018.9 0.0
01/10:00am 21.2 16.6 -0.7 23 9.7 ENE 13 20 7 11 1019.9 1019.2 0.0
01/09:30am 20.4 16.1 1.3 28 8.8 ENE 13 19 7 10 1020.0 1019.6 0.0
01/09:00am 19.0 14.8 1.5 31 8.0 ENE 13 19 7 10 1020.1 1019.7 0.4
01/08:30am 17.6 15.1 3.5 39 6.6 S 6 9 3 5 1020.1 1019.7 0.4
01/08:00am 14.6 12.3 4.9 52 4.6 SSW 6 7 3 4 1019.9 1019.5 0.4
01/07:30am 12.7 12.2 7.8 72 2.4 CALM 0 0 0 0 1019.6 1019.2 0.4
01/07:00am 9.4 7.4 6.1 80 1.5 SE 6 7 3 4 1019.0 1018.6 0.4
01/06:30am 7.4 4.9 4.9 84 1.1 SSW 7 9 4 5 1018.7 1018.3 0.4
01/06:00am 7.8 5.3 4.7 81 1.4 SSW 7 9 4 5 1018.3 1017.9 0.4
01/05:30am 8.5 5.5 5.8 83 1.2 WSW 11 13 6 7 1017.9 1017.5 0.4
01/05:00am 8.1 5.9 5.2 82 1.3 SW 6 7 3 4 1017.5 1017.1 0.4
01/04:30am 9.3 7.2 6.0 80 1.5 W 6 7 3 4 1017.4 1017.0 0.4
01/04:00am 10.0 6.9 5.6 74 2.0 NW 11 11 6 6 1017.2 1016.8 0.4
01/03:30am 8.2 4.9 6.2 87 0.9 NNW 13 15 7 8 1017.3 1016.9 0.4
01/03:00am 8.8 6.4 5.4 79 1.5 WSW 7 11 4 6 1017.0 1016.6 0.4
01/02:30am 8.5 7.4 5.3 80 1.5 CALM 0 0 0 0 1016.8 1016.4 0.4
01/02:00am 13.0 9.5 5.4 60 3.6 SSE 13 15 7 8 1016.7 1016.3 0.4
01/01:30am 10.3 6.9 5.7 73 2.1 SSW 13 15 7 8 1017.0 1016.6 0.4
01/01:00am 11.1 8.5 6.0 71 2.4 S 9 13 5 7 1017.1 1016.7 0.4
01/12:30am 11.0 9.5 6.9 76 2.0 S 4 6 2 3 1017.3 1016.9 0.4
01/12:00am 11.0 8.1 6.7 75 2.0 S 11 13 6 7 1017.4 1017.0 0.4
 
Date/Time
EST
Temp
°C
App
Temp
°C
Dew
Point
Rel
Hum
%
Delta-T
°C
Wind Press
QNH
hPa
Press
MSL
hPa
Rain
since 9 am
mm
Dir
 
Spd
km/h
Gust
km/h
Spd
kts
Gust
kts
31/11:30pm 11.2 8.3 6.7 74 2.2 S 11 15 6 8 1017.2 1016.8 0.4
31/11:00pm 11.2 8.1 7.1 76 2.0 SSW 13 15 7 8 1017.1 1016.7 0.4
31/10:30pm 11.6 8.1 7.3 75 2.1 SSW 15 15 8 8 1017.0 1016.6 0.4
31/10:00pm 12.0 10.1 7.5 74 2.2 S 7 11 4 6 1017.1 1016.7 0.4
31/09:30pm 13.0 11.4 7.9 71 2.5 SSE 6 9 3 5 1017.0 1016.6 0.4
31/09:00pm 12.3 9.6 7.2 71 2.5 NNW 11 13 6 7 1017.1 1016.7 0.4
31/08:30pm 14.0 12.1 7.5 65 3.2 SSE 7 11 4 6 1016.9 1016.5 0.4
31/08:00pm 13.8 12.0 7.1 64 3.3 E 6 9 3 5 1016.8 1016.4 0.4
31/07:30pm 16.7 15.8 5.9 49 5.3 CALM 0 0 0 0 1016.5 1016.1 0.4
31/07:00pm 16.9 15.7 4.6 44 5.9 CALM 0 0 0 0 1016.2 1015.8 0.4
31/06:30pm 17.6 16.7 5.9 46 5.8 CALM 0 0 0 0 1015.9 1015.5 0.4
31/06:00pm 19.4 17.0 5.1 39 7.0 WSW 7 11 4 6 1015.7 1015.3 0.4
31/05:30pm 21.8 18.4 3.9 31 8.7 W 11 15 6 8 1015.7 1015.3 0.4
31/05:00pm 22.8 18.9 3.4 28 9.4 SW 13 20 7 11 1015.5 1015.1 0.4
31/04:30pm 23.4 19.5 3.4 27 9.8 SW 13 26 7 14 1015.2 1014.8 0.4
31/04:00pm 23.3 18.5 2.7 26 9.9 SSW 17 26 9 14 1015.1 1014.7 0.4
31/03:30pm 23.9 18.7 2.7 25 10.3 WSW 19 26 10 14 1015.1 1014.7 0.4
31/03:00pm 23.8 18.6 2.6 25 10.2 W 19 30 10 16 1015.3 1014.9 0.4
31/02:30pm 23.6 18.2 2.4 25 10.2 WSW 20 30 11 16 1015.6 1015.2 0.4
31/02:00pm 23.6 18.0 1.3 23 10.5 W 20 32 11 17 1016.0 1015.6 0.4
31/01:30pm 23.5 18.2 1.8 24 10.3 WSW 19 30 10 16 1016.3 1015.9 0.4
31/01:00pm 23.4 18.5 2.3 25 10.1 W 17 24 9 13 1016.9 1016.5 0.4
31/12:30pm 22.2 17.9 3.3 29 9.1 SSW 15 22 8 12 1017.4 1017.0 0.0
31/12:00pm 21.4 17.8 3.1 30 8.8 S 11 20 6 11 1017.9 1017.5 0.0
31/11:30am 21.6 19.1 4.7 33 8.4 N 7 15 4 8 1018.4 1018.0 0.0
31/11:00am 21.3 18.6 5.6 36 7.9 NNW 9 15 5 8 1019.0 1018.6 0.0
31/10:30am 19.9 16.6 4.8 37 7.4 NE 11 17 6 9 1019.6 1019.2 0.0
31/10:00am 20.0 17.4 6.0 40 7.0 NNE 9 15 5 8 1019.8 1019.4 0.0
31/09:30am 18.8 16.3 6.6 45 6.1 NNE 9 17 5 9 1019.9 1019.5 0.0
31/09:00am 17.7 15.1 6.3 47 5.7 N 9 17 5 9 1019.9 1019.5 0.2
31/08:30am 15.5 14.6 6.2 54 4.5 CALM 0 7 0 4 1020.0 1019.6 0.2
31/08:00am 13.8 13.1 6.9 63 3.4 CALM 0 7 0 4 1019.4 1019.1 0.2
31/07:30am 12.1 11.5 7.2 72 2.4 CALM 0 6 0 3 1019.2 1018.9 0.2
31/07:00am 9.4 7.4 7.2 86 1.0 N 7 9 4 5 1018.7 1018.3 0.2
31/06:30am 9.4 7.4 6.1 80 1.5 SE 6 9 3 5 1018.4 1018.0 0.2
31/06:00am 8.7 5.2 5.6 81 1.4 SSW 13 15 7 8 1018.0 1017.6 0.2
31/05:30am 8.1 6.7 5.4 83 1.2 WNW 2 7 1 4 1017.4 1017.0 0.2
31/05:00am 9.3 6.8 6.6 83 1.3 W 9 11 5 6 1017.3 1016.9 0.2
31/04:30am 9.7 7.2 6.4 80 1.5 WSW 9 9 5 5 1017.1 1016.7 0.2
31/04:00am 10.2 9.6 7.4 83 1.3 CALM 0 0 0 0 1017.0 1016.6 0.2
31/03:30am 10.3 8.3 6.3 76 1.9 ESE 6 7 3 4 1017.2 1016.8 0.2
31/03:00am 10.5 8.2 5.7 72 2.2 NE 7 9 4 5 1017.3 1016.9 0.2
31/02:30am 13.0 9.7 6.4 64 3.2 SSE 13 15 7 8 1017.2 1016.8 0.2
31/02:00am 12.7 10.4 5.6 62 3.3 SSE 7 11 4 6 1017.4 1017.0 0.2
31/01:30am 14.0 10.6 5.9 58 3.9 S 13 15 7 8 1017.5 1017.1 0.2
31/01:00am 15.2 10.7 6.2 55 4.4 S 19 24 10 13 1017.7 1017.3 0.2
31/12:30am 15.3 10.9 6.6 56 4.3 S 19 24 10 13 1017.9 1017.5 0.2
31/12:00am 15.2 12.2 7.7 61 3.8 S 13 19 7 10 1018.0 1017.6 0.2
 
Date/Time
EST
Temp
°C
App
Temp
°C
Dew
Point
Rel
Hum
%
Delta-T
°C
Wind Press
QNH
hPa
Press
MSL
hPa
Rain
since 9 am
mm
Dir
 
Spd
km/h
Gust
km/h
Spd
kts
Gust
kts
30/11:30pm 13.3 9.6 8.0 70 2.6 SSW 17 20 9 11 1018.0 1017.6 0.2
30/11:00pm 13.3 10.6 9.0 75 2.2 SW 13 17 7 9 1018.1 1017.7 0.2
30/10:30pm 14.7 13.0 8.2 65 3.3 SSW 7 9 4 5 1018.0 1017.6 0.2
30/10:00pm 15.2 12.4 8.7 65 3.3 SSW 13 17 7 9 1017.9 1017.5 0.0
30/09:30pm 15.1 12.1 9.2 68 3.1 S 15 17 8 9 1017.9 1017.5 0.0
30/09:00pm 16.5 13.6 9.7 64 3.6 SSE 15 17 8 9 1017.8 1017.4 0.0
30/08:30pm 16.6 13.7 9.8 64 3.6 SSE 15 17 8 9 1017.6 1017.2 0.0
30/08:00pm 17.2 14.6 9.4 60 4.1 S 13 15 7 8 1017.2 1016.8 0.0
30/07:30pm 17.4 15.2 9.3 59 4.3 SSE 11 13 6 7 1017.0 1016.6 0.0
30/07:00pm 18.4 15.8 9.5 56 4.7 S 13 15 7 8 1016.7 1016.3 0.0
30/06:30pm 18.7 16.4 8.9 53 5.2 S 11 13 6 7 1016.4 1016.0 0.0
30/06:00pm 19.9 17.6 8.9 49 5.8 SW 11 11 6 6 1016.1 1015.7 0.0
30/05:30pm 21.9 18.6 8.1 41 7.3 SW 15 20 8 11 1015.9 1015.5 0.0
30/05:00pm 23.1 19.8 8.0 38 8.0 SW 15 19 8 10 1015.6 1015.2 0.0
30/04:30pm 23.6 19.4 7.3 35 8.6 SW 19 26 10 14 1015.3 1014.9 0.0
30/04:00pm 24.4 21.4 9.2 38 8.3 SSW 15 24 8 13 1015.2 1014.8 0.0
30/03:30pm 23.8 21.0 8.6 38 8.2 SSW 13 26 7 14 1015.4 1015.0 0.0
30/03:00pm 23.9 20.1 9.1 39 8.0 SSW 19 30 10 16 1015.7 1015.3 0.0
30/02:30pm 23.0 19.9 8.7 40 7.7 SSW 15 24 8 13 1015.9 1015.5 0.0
30/02:00pm 23.4 20.4 10.8 45 7.0 SW 17 24 9 13 1016.3 1015.9 0.0
30/01:30pm 23.2 20.8 9.9 43 7.3 WSW 13 24 7 13 1016.7 1016.3 0.0
30/01:00pm 22.9 21.1 10.7 46 6.8 WNW 11 24 6 13 1017.2 1016.8 0.0
30/12:30pm 23.2 20.7 12.2 50 6.3 SW 17 24 9 13 1017.5 1017.1 0.0
30/12:00pm 21.8 19.8 11.5 52 5.8 WSW 13 24 7 13 1018.0 1017.6 0.0
30/11:30am 21.7 21.2 12.5 56 5.3 WSW 7 17 4 9 1018.8 1018.4 0.0
30/11:00am 21.0 19.7 12.4 58 4.9 SE 11 17 6 9 1019.3 1019.0 0.0
30/10:30am 20.4 19.3 13.1 63 4.2 S 11 19 6 10 1019.8 1019.4 0.0
30/10:00am 18.6 16.6 12.6 68 3.4 S 15 20 8 11 1020.0 1019.6 0.0
30/09:30am 18.5 17.0 14.2 76 2.5 S 15 20 8 11 1019.8 1019.4 0.0
30/09:00am 17.1 15.8 14.7 86 1.4 S 15 20 8 11 1019.8 1019.4 0.0
30/08:30am 15.8 14.7 14.2 90 0.9 SSW 13 17 7 9 1020.0 1019.6 0.0
30/08:00am 14.8 13.4 13.5 92 0.7 S 13 17 7 9 1019.8 1019.4 0.0
30/07:30am 15.2 14.0 13.9 92 0.7 S 13 17 7 9 1019.7 1019.3 0.0
30/07:00am 15.3 13.8 14.3 94 0.6 SSW 15 19 8 10 1019.2 1018.9 0.0
30/06:30am 15.1 13.6 14.3 95 0.5 SSW 15 20 8 11 1018.6 1018.2 0.0
30/06:00am 14.9 14.6 14.3 96 0.3 SSW 9 11 5 6 1018.1 1017.7 0.0
30/05:30am 14.9 13.7 14.1 95 0.5 SW 13 15 7 8 1017.6 1017.2 0.0
30/05:00am 15.5 14.9 14.7 95 0.5 SSE 11 17 6 9 1017.1 1016.7 0.0
30/04:30am 15.9 15.1 15.1 95 0.5 S 13 19 7 10 1017.6 1017.2 0.0
30/04:00am 16.4 16.2 15.8 96 0.4 SW 11 15 6 8 1018.4 1018.0 0.0
30/03:30am 16.4 14.7 15.8 96 0.4 W 19 26 10 14 1018.8 1018.4 0.0
30/03:00am 16.4 17.0 15.9 97 0.3 SW 7 9 4 5 1018.1 1017.7 0.0
30/02:30am 15.9 16.5 15.3 96 0.4 SSW 6 9 3 5 1017.9 1017.5 0.0
30/02:00am 15.9 15.9 15.1 95 0.5 E 9 11 5 6 1017.7 1017.3 0.0
30/01:30am 16.2 16.3 15.4 95 0.5 NE 9 13 5 7 1018.4 1018.0 0.0
30/01:00am 16.5 17.1 15.7 95 0.5 ENE 7 11 4 6 1019.2 1018.9 0.0
30/12:30am 16.9 17.6 16.1 95 0.5 N 7 11 4 6 1019.8 1019.4 0.0
30/12:00am 16.9 17.7 15.9 94 0.6 ESE 6 7 3 4 1019.6 1019.2 0.0
 
Date/Time
EST
Temp
°C
App
Temp
°C
Dew
Point
Rel
Hum
%
Delta-T
°C
Wind Press
QNH
hPa
Press
MSL
hPa
Rain
since 9 am
mm
Dir
 
Spd
km/h
Gust
km/h
Spd
kts
Gust
kts
29/11:30pm 16.8 17.0 15.8 94 0.6 ESE 9 11 5 6 1019.4 1019.1 0.0
29/11:00pm 16.8 17.4 15.8 94 0.6 SSE 7 9 4 5 1019.6 1019.2 0.0
29/10:30pm 16.9 16.8 15.9 94 0.6 S 11 13 6 7 1019.6 1019.2 0.0
29/10:00pm 16.9 17.2 15.9 94 0.6 S 9 13 5 7 1019.8 1019.4 0.0
29/09:30pm 17.0 16.9 16.0 94 0.6 SE 11 13 6 7 1019.6 1019.2 0.0
29/09:00pm 16.8 18.7 15.8 94 0.6 CALM 0 6 0 3 1019.9 1019.5 0.0
29/08:30pm 16.7 16.1 15.7 94 0.6 S 13 17 7 9 1019.7 1019.3 0.0
29/08:00pm 17.4 16.5 15.9 91 0.9 SE 15 19 8 10 1018.7 1018.3 0.0
29/07:30pm 16.8 15.5 15.8 94 0.6 SSE 17 26 9 14 1018.7 1018.3 0.0
29/07:00pm 16.3 13.5 15.3 94 0.6 SSE 24 33 13 18 1018.3 1017.9 0.0
29/06:30pm 16.4 14.6 15.6 95 0.5 S 19 26 10 14 1019.0 1018.6 0.0
29/06:00pm 16.4 12.5 15.6 95 0.5 SSE 30 39 16 21 1018.3 1017.9 0.0
29/05:30pm 15.9 10.9 15.1 95 0.5 S 35 50 19 27 1018.3 1017.9 0.0
29/05:00pm 16.9 11.5 14.9 88 1.2 SSW 37 57 20 31 1017.4 1017.0 0.0
29/04:59pm 17.0 11.9 14.8 87 1.3 SSW 35 57 19 31 1017.3 1016.9 0.0
29/04:40pm 20.7 18.1 12.1 58 4.9 E 17 33 9 18 1016.4 1016.0 0.0
29/04:30pm 25.7 23.3 12.5 44 7.7 NNE 17 26 9 14 1015.7 1015.3 0.0
29/04:00pm 26.5 23.6 12.9 43 8.0 NNE 20 28 11 15 1015.5 1015.1 0.0

Other Formats:

Comma delimited format used in spreadsheet applications
http://www.bom.gov.au/fwo/IDQ60801/IDQ60801.94398.axf

JavaScript Object Notation format (JSON) in row-major order
http://www.bom.gov.au/fwo/IDQ60801/IDQ60801.94398.json